createdAt,value
2023-04-26T00:00:58.849Z,508.00
2023-04-26T00:01:59.411Z,508.00
2023-04-26T00:02:58.964Z,507.00
2023-04-26T00:03:59.140Z,502.00
2023-04-26T00:04:59.261Z,505.00
2023-04-26T00:05:59.146Z,504.00
2023-04-26T00:06:59.104Z,505.00
2023-04-26T00:07:59.136Z,505.00
2023-04-26T00:08:59.466Z,502.00
2023-04-26T00:09:59.261Z,505.00
2023-04-26T00:10:59.276Z,503.00
2023-04-26T00:11:59.347Z,505.00
2023-04-26T00:12:59.372Z,504.00
2023-04-26T00:13:59.456Z,504.00
2023-04-26T00:14:59.459Z,502.00
2023-04-26T00:15:59.628Z,501.00
2023-04-26T00:16:59.574Z,502.00
2023-04-26T00:17:59.645Z,505.00
2023-04-26T00:18:59.658Z,504.00
2023-04-26T00:19:59.735Z,506.00
2023-04-26T00:20:59.777Z,502.00
2023-04-26T00:21:59.812Z,505.00
2023-04-26T00:22:59.902Z,505.00
2023-04-26T00:23:59.924Z,504.00
2023-04-26T00:25:00.057Z,508.00
2023-04-26T00:26:00.133Z,502.00
2023-04-26T00:27:00.123Z,503.00
2023-04-26T00:28:00.233Z,504.00
2023-04-26T00:29:00.240Z,505.00
2023-04-26T00:30:00.318Z,506.00
2023-04-26T00:31:00.403Z,502.00
2023-04-26T00:32:00.449Z,501.00
2023-04-26T00:33:00.475Z,502.00
2023-04-26T00:34:00.527Z,507.00
2023-04-26T00:35:00.581Z,505.00
2023-04-26T00:36:00.595Z,505.00
2023-04-26T00:37:00.687Z,504.00
2023-04-26T00:38:00.711Z,500.00
2023-04-26T00:39:00.769Z,503.00
2023-04-26T00:40:00.829Z,504.00
2023-04-26T00:41:00.879Z,503.00
2023-04-26T00:42:00.931Z,505.00
2023-04-26T00:43:02.011Z,505.00
2023-04-26T00:44:01.018Z,505.00
2023-04-26T00:45:01.111Z,507.00
2023-04-26T00:46:01.233Z,506.00
2023-04-26T00:47:01.190Z,505.00
2023-04-26T00:48:01.329Z,503.00
2023-04-26T00:49:01.300Z,505.00
2023-04-26T00:50:01.319Z,506.00
2023-04-26T00:51:01.390Z,505.00
2023-04-26T00:52:01.481Z,504.00
2023-04-26T00:53:01.504Z,504.00
2023-04-26T00:54:01.584Z,502.00
2023-04-26T00:55:01.642Z,505.00
2023-04-26T00:56:01.776Z,507.00
2023-04-26T00:57:01.703Z,503.00
2023-04-26T00:58:01.787Z,502.00
2023-04-26T00:59:01.819Z,502.00
2023-04-26T01:00:02.476Z,503.00
2023-04-26T01:01:02.037Z,504.00
2023-04-26T01:02:02.098Z,506.00
2023-04-26T01:03:02.151Z,505.00
2023-04-26T01:04:02.501Z,500.00
2023-04-26T01:05:02.210Z,501.00
2023-04-26T01:06:02.230Z,502.00
2023-04-26T01:07:02.245Z,502.00
2023-04-26T01:08:02.338Z,501.00
2023-04-26T01:09:02.368Z,506.00
2023-04-26T01:10:02.430Z,500.00
2023-04-26T01:11:02.483Z,505.00
2023-04-26T01:12:02.562Z,505.00
2023-04-26T01:13:02.597Z,504.00
2023-04-26T01:14:02.668Z,505.00
2023-04-26T01:15:02.710Z,503.00
2023-04-26T01:16:02.764Z,503.00
2023-04-26T01:17:02.904Z,503.00
2023-04-26T01:18:02.952Z,503.00
2023-04-26T01:19:02.944Z,504.00
2023-04-26T01:20:03.028Z,504.00
2023-04-26T01:21:03.630Z,504.00
2023-04-26T01:22:03.109Z,500.00
2023-04-26T01:23:03.173Z,504.00
2023-04-26T01:24:03.255Z,506.00
2023-04-26T01:25:03.310Z,504.00
2023-04-26T01:26:03.341Z,508.00
2023-04-26T01:27:03.409Z,505.00
2023-04-26T01:28:03.523Z,502.00
2023-04-26T01:29:03.568Z,503.00
2023-04-26T01:30:03.602Z,506.00
2023-04-26T01:31:03.736Z,505.00
2023-04-26T01:32:03.694Z,505.00
2023-04-26T01:33:03.764Z,502.00
2023-04-26T01:34:03.980Z,504.00
2023-04-26T01:35:03.879Z,504.00
2023-04-26T01:36:03.930Z,503.00
2023-04-26T01:37:03.950Z,506.00
2023-04-26T01:38:04.039Z,503.00
2023-04-26T01:39:04.096Z,502.00
2023-04-26T01:40:04.153Z,500.00
2023-04-26T01:41:04.204Z,503.00
2023-04-26T01:42:04.272Z,503.00
2023-04-26T01:43:04.345Z,502.00
2023-04-26T01:44:04.394Z,504.00
2023-04-26T01:45:04.464Z,504.00
2023-04-26T01:46:04.639Z,501.00
2023-04-26T01:47:04.581Z,503.00
2023-04-26T01:48:04.715Z,504.00
2023-04-26T01:49:04.737Z,502.00
2023-04-26T01:50:04.784Z,508.00
2023-04-26T01:51:04.805Z,505.00
2023-04-26T01:52:04.890Z,508.00
2023-04-26T01:53:04.925Z,505.00
2023-04-26T01:54:04.998Z,503.00
2023-04-26T01:55:05.068Z,508.00
2023-04-26T01:56:05.133Z,505.00
2023-04-26T01:57:05.177Z,503.00
2023-04-26T01:58:05.199Z,507.00
2023-04-26T01:59:05.317Z,503.00
2023-04-26T02:00:05.364Z,505.00
2023-04-26T02:01:05.388Z,506.00
2023-04-26T02:02:05.655Z,506.00
2023-04-26T02:03:05.613Z,504.00
2023-04-26T02:04:05.604Z,501.00
2023-04-26T02:05:05.693Z,506.00
2023-04-26T02:06:05.712Z,507.00
2023-04-26T02:07:05.729Z,507.00
2023-04-26T02:08:05.794Z,502.00
2023-04-26T02:09:05.840Z,505.00
2023-04-26T02:10:05.907Z,504.00
2023-04-26T02:11:05.956Z,506.00
2023-04-26T02:12:06.021Z,502.00
2023-04-26T02:13:06.047Z,503.00
2023-04-26T02:14:06.148Z,507.00
2023-04-26T02:15:06.199Z,503.00
2023-04-26T02:16:06.247Z,507.00
2023-04-26T02:17:06.221Z,506.00
2023-04-26T02:18:06.387Z,506.00
2023-04-26T02:19:06.309Z,506.00
2023-04-26T02:20:06.349Z,509.00
2023-04-26T02:21:06.433Z,505.00
2023-04-26T02:22:06.480Z,511.00
2023-04-26T02:23:06.547Z,505.00
2023-04-26T02:24:06.584Z,504.00
2023-04-26T02:25:06.629Z,509.00
2023-04-26T02:26:06.659Z,511.00
2023-04-26T02:27:06.741Z,509.00
2023-04-26T02:28:06.825Z,507.00
2023-04-26T02:29:07.016Z,506.00
2023-04-26T02:30:06.975Z,504.00
2023-04-26T02:31:07.010Z,505.00
2023-04-26T02:32:07.095Z,504.00
2023-04-26T02:33:07.207Z,505.00
2023-04-26T02:34:07.202Z,505.00
2023-04-26T02:35:07.213Z,505.00
2023-04-26T02:36:07.279Z,504.00
2023-04-26T02:37:07.365Z,503.00
2023-04-26T02:38:07.435Z,505.00
2023-04-26T02:39:07.560Z,506.00
2023-04-26T02:40:07.510Z,506.00
2023-04-26T02:41:07.565Z,507.00
2023-04-26T02:42:07.639Z,504.00
2023-04-26T02:43:07.776Z,502.00
2023-04-26T02:44:07.747Z,507.00
2023-04-26T02:45:07.790Z,505.00
2023-04-26T02:46:07.858Z,501.00
2023-04-26T02:47:07.929Z,505.00
2023-04-26T02:48:07.979Z,503.00
2023-04-26T02:49:08.039Z,503.00
2023-04-26T02:50:08.039Z,501.00
2023-04-26T02:51:08.115Z,504.00
2023-04-26T02:52:08.155Z,502.00
2023-04-26T02:53:08.225Z,503.00
2023-04-26T02:54:08.498Z,504.00
2023-04-26T02:55:08.314Z,504.00
2023-04-26T02:56:08.348Z,503.00
2023-04-26T02:57:08.410Z,504.00
2023-04-26T02:58:08.438Z,504.00
2023-04-26T02:59:08.513Z,507.00
2023-04-26T03:00:08.575Z,503.00
2023-04-26T03:01:08.623Z,501.00
2023-04-26T03:02:08.695Z,503.00
2023-04-26T03:03:08.907Z,502.00
2023-04-26T03:04:09.111Z,502.00
2023-04-26T03:05:08.798Z,504.00
2023-04-26T03:06:08.804Z,503.00
2023-04-26T03:07:08.821Z,504.00
2023-04-26T03:08:08.876Z,504.00
2023-04-26T03:09:08.966Z,506.00
2023-04-26T03:10:09.062Z,507.00
2023-04-26T03:11:09.039Z,503.00
2023-04-26T03:12:09.110Z,506.00
2023-04-26T03:13:09.141Z,500.00
2023-04-26T03:14:09.197Z,504.00
2023-04-26T03:15:09.236Z,503.00
2023-04-26T03:16:09.314Z,503.00
2023-04-26T03:17:09.283Z,504.00
2023-04-26T03:18:09.348Z,505.00
2023-04-26T03:19:09.336Z,502.00
2023-04-26T03:20:09.409Z,507.00
2023-04-26T03:21:09.402Z,504.00
2023-04-26T03:22:09.430Z,500.00
2023-04-26T03:23:09.490Z,502.00
2023-04-26T03:24:09.516Z,504.00
2023-04-26T03:25:09.540Z,508.00
2023-04-26T03:26:09.617Z,508.00
2023-04-26T03:27:09.668Z,502.00
2023-04-26T03:28:09.700Z,503.00
2023-04-26T03:29:09.771Z,504.00
2023-04-26T03:30:09.868Z,503.00
2023-04-26T03:31:09.855Z,502.00
2023-04-26T03:32:10.015Z,501.00
2023-04-26T03:33:09.973Z,504.00
2023-04-26T03:34:09.939Z,504.00
2023-04-26T03:35:09.924Z,500.00
2023-04-26T03:36:09.910Z,500.00
2023-04-26T03:37:10.003Z,506.00
2023-04-26T03:38:10.019Z,508.00
2023-04-26T03:39:10.049Z,504.00
2023-04-26T03:40:10.006Z,505.00
2023-04-26T03:41:09.996Z,507.00
2023-04-26T03:42:09.998Z,504.00
2023-04-26T03:43:09.981Z,505.00
2023-04-26T03:44:09.985Z,505.00
2023-04-26T03:45:10.007Z,501.00
2023-04-26T03:46:10.129Z,507.00
2023-04-26T03:47:09.975Z,504.00
2023-04-26T03:48:10.039Z,506.00
2023-04-26T03:49:10.011Z,505.00
2023-04-26T03:50:10.021Z,506.00
2023-04-26T03:51:10.030Z,503.00
2023-04-26T03:52:10.056Z,501.00
2023-04-26T03:53:10.082Z,500.00
2023-04-26T03:54:10.154Z,503.00
2023-04-26T03:55:10.163Z,504.00
2023-04-26T03:56:10.145Z,500.00
2023-04-26T03:57:10.284Z,505.00
2023-04-26T03:58:10.157Z,504.00
2023-04-26T03:59:10.232Z,507.00
2023-04-26T04:00:10.210Z,506.00
2023-04-26T04:01:10.220Z,505.00
2023-04-26T04:02:10.291Z,508.00
2023-04-26T04:03:10.396Z,505.00
2023-04-26T04:04:10.648Z,504.00
2023-04-26T04:05:10.317Z,504.00
2023-04-26T04:06:10.230Z,503.00
2023-04-26T04:07:10.279Z,503.00
2023-04-26T04:08:10.286Z,505.00
2023-04-26T04:09:10.285Z,504.00
2023-04-26T04:10:10.269Z,502.00
2023-04-26T04:11:10.258Z,503.00
2023-04-26T04:12:10.265Z,502.00
2023-04-26T04:13:10.265Z,503.00
2023-04-26T04:14:10.248Z,504.00
2023-04-26T04:15:10.227Z,503.00
2023-04-26T04:16:10.344Z,502.00
2023-04-26T04:17:10.246Z,500.00
2023-04-26T04:18:10.309Z,501.00
2023-04-26T04:19:10.230Z,505.00
2023-04-26T04:20:10.533Z,502.00
2023-04-26T04:21:10.243Z,502.00
2023-04-26T04:22:10.237Z,507.00
2023-04-26T04:23:10.256Z,504.00
2023-04-26T04:24:10.251Z,508.00
2023-04-26T04:25:10.277Z,504.00
2023-04-26T04:26:10.297Z,504.00
2023-04-26T04:27:10.344Z,504.00
2023-04-26T04:28:10.294Z,501.00
2023-04-26T04:29:10.300Z,505.00
2023-04-26T04:30:10.536Z,507.00
2023-04-26T04:31:10.302Z,505.00
2023-04-26T04:32:10.283Z,504.00
2023-04-26T04:33:10.340Z,504.00
2023-04-26T04:34:10.276Z,505.00
2023-04-26T04:35:10.279Z,503.00
2023-04-26T04:36:10.270Z,503.00
2023-04-26T04:37:10.248Z,506.00
2023-04-26T04:38:10.257Z,507.00
2023-04-26T04:39:10.280Z,506.00
2023-04-26T04:40:11.501Z,505.00
2023-04-26T04:41:10.260Z,501.00
2023-04-26T04:42:10.256Z,504.00
2023-04-26T04:43:10.244Z,504.00
2023-04-26T04:44:10.283Z,502.00
2023-04-26T04:45:10.585Z,502.00
2023-04-26T04:46:12.597Z,502.00
2023-04-26T04:47:10.398Z,502.00
2023-04-26T04:48:10.429Z,506.00
2023-04-26T04:49:10.411Z,501.00
2023-04-26T04:50:10.416Z,501.00
2023-04-26T04:51:10.424Z,506.00
2023-04-26T04:52:10.387Z,506.00
2023-04-26T04:53:10.443Z,487.00
2023-04-26T04:54:10.450Z,500.00
2023-04-26T04:55:10.410Z,504.00
2023-04-26T04:56:10.399Z,502.00
2023-04-26T04:57:10.407Z,511.00
2023-04-26T04:58:10.398Z,504.00
2023-04-26T04:59:10.416Z,501.00
2023-04-26T05:00:10.478Z,501.00
2023-04-26T05:01:10.434Z,507.00
2023-04-26T05:02:10.469Z,500.00
2023-04-26T05:03:10.598Z,500.00
2023-04-26T05:04:10.780Z,501.00
2023-04-26T05:05:10.647Z,501.00
2023-04-26T05:06:10.542Z,501.00
2023-04-26T05:07:10.541Z,501.00
2023-04-26T05:08:10.601Z,506.00
2023-04-26T05:09:10.578Z,507.00
2023-04-26T05:10:11.584Z,503.00
2023-04-26T05:11:10.623Z,503.00
2023-04-26T05:12:10.685Z,499.00
2023-04-26T05:13:10.723Z,501.00
2023-04-26T05:14:10.797Z,504.00
2023-04-26T05:15:10.776Z,504.00
2023-04-26T05:16:10.836Z,503.00
2023-04-26T05:17:10.852Z,504.00
2023-04-26T05:18:10.891Z,505.00
2023-04-26T05:19:10.935Z,502.00
2023-04-26T05:20:10.954Z,500.00
2023-04-26T05:21:10.944Z,502.00
2023-04-26T05:22:10.983Z,512.00
2023-04-26T05:23:11.027Z,533.00
2023-04-26T05:24:11.131Z,504.00
2023-04-26T05:25:11.113Z,500.00
2023-04-26T05:26:11.127Z,502.00
2023-04-26T05:27:11.195Z,506.00
2023-04-26T05:28:11.196Z,508.00
2023-04-26T05:29:11.216Z,505.00
2023-04-26T05:30:11.282Z,510.00
2023-04-26T05:31:11.723Z,528.00
2023-04-26T05:32:11.329Z,549.00
2023-04-26T05:33:11.381Z,518.00
2023-04-26T05:34:11.334Z,521.00
2023-04-26T05:35:11.319Z,515.00
2023-04-26T05:36:11.306Z,510.00
2023-04-26T05:37:11.361Z,524.00
2023-04-26T05:38:11.372Z,531.00
2023-04-26T05:39:11.405Z,513.00
2023-04-26T05:40:11.596Z,504.00
2023-04-26T05:41:11.400Z,500.00
2023-04-26T05:42:11.527Z,500.00
2023-04-26T05:43:11.434Z,501.00
2023-04-26T05:44:11.584Z,508.00
2023-04-26T05:45:11.635Z,508.00
2023-04-26T05:46:11.617Z,507.00
2023-04-26T05:47:11.441Z,519.00
2023-04-26T05:48:11.491Z,520.00
2023-04-26T05:49:11.518Z,561.00
2023-04-26T05:50:11.492Z,570.00
2023-04-26T05:51:11.538Z,585.00
2023-04-26T05:52:11.538Z,595.00
2023-04-26T05:53:11.504Z,607.00
2023-04-26T05:54:11.510Z,636.00
2023-04-26T05:55:11.595Z,621.00
2023-04-26T05:56:11.498Z,626.00
2023-04-26T05:57:11.575Z,641.00
2023-04-26T05:58:11.478Z,651.00
2023-04-26T05:59:11.538Z,654.00
2023-04-26T06:00:11.590Z,654.00
2023-04-26T06:01:11.492Z,671.00
2023-04-26T06:02:11.728Z,685.00
2023-04-26T06:03:11.714Z,696.00
2023-04-26T06:04:11.991Z,702.00
2023-04-26T06:05:11.730Z,714.00
2023-04-26T06:06:12.530Z,715.00
2023-04-26T06:07:11.521Z,675.00
2023-04-26T06:08:11.503Z,712.00
2023-04-26T06:09:11.485Z,676.00
2023-04-26T06:10:11.548Z,652.00
2023-04-26T06:11:11.505Z,740.00
2023-04-26T06:12:11.528Z,715.00
2023-04-26T06:13:11.530Z,794.00
2023-04-26T06:14:23.162Z,841.00
2023-04-26T06:15:12.449Z,841.00
2023-04-26T06:16:11.436Z,792.00
2023-04-26T06:17:11.465Z,779.00
2023-04-26T06:18:11.478Z,838.00
2023-04-26T06:19:11.485Z,823.00
2023-04-26T06:20:11.610Z,781.00
2023-04-26T06:21:11.411Z,688.00
2023-04-26T06:22:11.418Z,665.00
2023-04-26T06:23:11.387Z,722.00
2023-04-26T06:24:11.420Z,750.00
2023-04-26T06:25:11.632Z,745.00
2023-04-26T06:26:11.526Z,778.00
2023-04-26T06:27:11.586Z,673.00
2023-04-26T06:28:11.623Z,718.00
2023-04-26T06:29:11.685Z,652.00
2023-04-26T06:30:11.769Z,706.00
2023-04-26T06:31:11.801Z,796.00
2023-04-26T06:32:11.789Z,733.00
2023-04-26T06:33:11.931Z,709.00
2023-04-26T06:34:11.884Z,762.00
2023-04-26T06:35:11.929Z,721.00
2023-04-26T06:36:11.973Z,739.00
2023-04-26T06:37:11.962Z,722.00
2023-04-26T06:38:12.011Z,767.00
2023-04-26T06:39:12.069Z,791.00
2023-04-26T06:40:12.131Z,688.00
2023-04-26T06:41:12.131Z,704.00
2023-04-26T06:42:12.151Z,702.00
2023-04-26T06:43:12.192Z,697.00
2023-04-26T06:44:12.205Z,772.00
2023-04-26T06:45:12.258Z,780.00
2023-04-26T06:46:12.241Z,721.00
2023-04-26T06:47:12.281Z,688.00
2023-04-26T06:48:12.388Z,729.00
2023-04-26T06:49:12.336Z,715.00
2023-04-26T06:50:12.319Z,736.00
2023-04-26T06:51:12.489Z,659.00
2023-04-26T06:52:12.385Z,691.00
2023-04-26T06:53:12.424Z,791.00
2023-04-26T06:54:12.422Z,820.00
2023-04-26T06:55:12.645Z,866.00
2023-04-26T06:56:12.420Z,890.00
2023-04-26T06:57:12.454Z,926.00
2023-04-26T06:58:12.456Z,881.00
2023-04-26T06:59:12.494Z,844.00
2023-04-26T07:00:12.610Z,903.00
2023-04-26T07:01:12.563Z,931.00
2023-04-26T07:02:13.919Z,940.00
2023-04-26T07:03:12.593Z,967.00
2023-04-26T07:04:12.698Z,936.00
2023-04-26T07:05:12.702Z,925.00
2023-04-26T07:06:12.510Z,929.00
2023-04-26T07:07:13.675Z,935.00
2023-04-26T07:08:12.510Z,966.00
2023-04-26T07:09:12.468Z,946.00
2023-04-26T07:10:12.647Z,940.00
2023-04-26T07:11:12.489Z,910.00
2023-04-26T07:12:12.506Z,916.00
2023-04-26T07:13:12.467Z,928.00
2023-04-26T07:14:12.468Z,929.00
2023-04-26T07:15:12.437Z,937.00
2023-04-26T07:16:12.439Z,936.00
2023-04-26T07:17:12.436Z,923.00
2023-04-26T07:18:12.452Z,929.00
2023-04-26T07:19:13.459Z,931.00
2023-04-26T07:20:12.629Z,933.00
2023-04-26T07:21:12.420Z,909.00
2023-04-26T07:22:13.447Z,910.00
2023-04-26T07:23:13.147Z,883.00
2023-04-26T07:24:12.376Z,908.00
2023-04-26T07:25:12.387Z,887.00
2023-04-26T07:26:12.375Z,922.00
2023-04-26T07:27:12.366Z,924.00
2023-04-26T07:28:12.318Z,921.00
2023-04-26T07:29:12.361Z,937.00
2023-04-26T07:30:12.641Z,907.00
2023-04-26T07:31:12.351Z,914.00
2023-04-26T07:32:12.382Z,929.00
2023-04-26T07:33:12.379Z,814.00
2023-04-26T07:34:12.294Z,871.00
2023-04-26T07:35:12.619Z,901.00
2023-04-26T07:36:12.268Z,936.00
2023-04-26T07:37:12.304Z,932.00
2023-04-26T07:38:12.254Z,925.00
2023-04-26T07:39:12.274Z,907.00
2023-04-26T07:40:12.289Z,894.00
2023-04-26T07:41:12.267Z,886.00
2023-04-26T07:42:12.249Z,884.00
2023-04-26T07:43:12.272Z,893.00
2023-04-26T07:44:12.290Z,869.00
2023-04-26T07:45:12.224Z,900.00
2023-04-26T07:46:12.700Z,910.00
2023-04-26T07:47:12.218Z,855.00
2023-04-26T07:48:12.230Z,844.00
2023-04-26T07:49:12.200Z,869.00
2023-04-26T07:50:12.199Z,846.00
2023-04-26T07:51:12.215Z,843.00
2023-04-26T07:52:12.170Z,821.00
2023-04-26T07:53:12.171Z,766.00
2023-04-26T07:54:12.172Z,837.00
2023-04-26T07:55:12.164Z,784.00
2023-04-26T07:56:12.172Z,857.00
2023-04-26T07:57:12.162Z,805.00
2023-04-26T07:58:12.112Z,799.00
2023-04-26T07:59:12.171Z,762.00
2023-04-26T08:00:12.119Z,842.00
2023-04-26T08:01:12.094Z,763.00
2023-04-26T08:02:12.168Z,845.00
2023-04-26T08:03:12.202Z,830.00
2023-04-26T08:04:12.353Z,807.00
2023-04-26T08:05:12.193Z,867.00
2023-04-26T08:06:12.151Z,819.00
2023-04-26T08:07:12.095Z,910.00
2023-04-26T08:08:12.162Z,832.00
2023-04-26T08:09:12.232Z,803.00
2023-04-26T08:10:12.615Z,856.00
2023-04-26T08:11:12.349Z,867.00
2023-04-26T08:12:12.442Z,731.00
2023-04-26T08:13:12.437Z,758.00
2023-04-26T08:14:12.509Z,706.00
2023-04-26T08:15:12.673Z,808.00
2023-04-26T08:16:12.708Z,854.00
2023-04-26T08:17:12.828Z,870.00
2023-04-26T08:18:12.818Z,899.00
2023-04-26T08:19:12.804Z,920.00
2023-04-26T08:20:13.187Z,906.00
2023-04-26T08:21:12.945Z,818.00
2023-04-26T08:22:12.959Z,722.00
2023-04-26T08:23:13.042Z,836.00
2023-04-26T08:24:13.097Z,869.00
2023-04-26T08:25:13.182Z,788.00
2023-04-26T08:26:13.638Z,850.00
2023-04-26T08:27:13.342Z,853.00
2023-04-26T08:28:13.353Z,862.00
2023-04-26T08:29:13.390Z,798.00
2023-04-26T08:30:13.443Z,822.00
2023-04-26T08:31:14.587Z,853.00
2023-04-26T08:32:13.531Z,849.00
2023-04-26T08:33:13.650Z,874.00
2023-04-26T08:34:13.649Z,749.00
2023-04-26T08:35:13.708Z,832.00
2023-04-26T08:36:14.159Z,807.00
2023-04-26T08:37:13.853Z,727.00
2023-04-26T08:38:13.881Z,837.00
2023-04-26T08:39:13.974Z,876.00
2023-04-26T08:40:14.025Z,823.00
2023-04-26T08:41:14.211Z,890.00
2023-04-26T08:42:14.151Z,951.00
2023-04-26T08:43:14.212Z,1016.00
2023-04-26T08:44:14.229Z,1042.00
2023-04-26T08:45:14.277Z,1005.00
2023-04-26T08:46:14.375Z,958.00
2023-04-26T08:47:14.473Z,941.00
2023-04-26T08:48:14.531Z,893.00
2023-04-26T08:49:14.498Z,802.00
2023-04-26T08:50:14.614Z,829.00
2023-04-26T08:51:15.167Z,819.00
2023-04-26T08:52:15.157Z,833.00
2023-04-26T08:53:14.642Z,803.00
2023-04-26T08:54:14.654Z,779.00
2023-04-26T08:55:14.633Z,782.00
2023-04-26T08:56:14.680Z,777.00
2023-04-26T08:57:14.622Z,768.00
2023-04-26T08:58:14.629Z,753.00
2023-04-26T08:59:15.197Z,721.00
2023-04-26T09:00:14.633Z,726.00
2023-04-26T09:01:14.665Z,726.00
2023-04-26T09:02:14.729Z,718.00
2023-04-26T09:03:14.827Z,683.00
2023-04-26T09:04:14.814Z,656.00
2023-04-26T09:05:14.989Z,702.00
2023-04-26T09:06:14.675Z,717.00
2023-04-26T09:07:14.656Z,703.00
2023-04-26T09:08:14.652Z,653.00
2023-04-26T09:09:14.635Z,679.00
2023-04-26T09:10:14.685Z,652.00
2023-04-26T09:11:14.688Z,657.00
2023-04-26T09:12:14.650Z,647.00
2023-04-26T09:13:14.756Z,661.00
2023-04-26T09:14:14.703Z,625.00
2023-04-26T09:15:14.869Z,632.00
2023-04-26T09:16:14.754Z,637.00
2023-04-26T09:17:14.704Z,642.00
2023-04-26T09:18:14.729Z,638.00
2023-04-26T09:19:14.769Z,647.00
2023-04-26T09:20:14.777Z,644.00
2023-04-26T09:21:14.817Z,650.00
2023-04-26T09:22:14.784Z,632.00
2023-04-26T09:23:14.796Z,607.00
2023-04-26T09:24:14.850Z,632.00
2023-04-26T09:25:14.873Z,622.00
2023-04-26T09:26:14.891Z,636.00
2023-04-26T09:27:14.886Z,602.00
2023-04-26T09:28:14.894Z,615.00
2023-04-26T09:29:14.916Z,635.00
2023-04-26T09:30:14.907Z,600.00
2023-04-26T09:31:15.179Z,588.00
2023-04-26T09:32:14.954Z,612.00
2023-04-26T09:33:15.036Z,634.00
2023-04-26T09:34:15.001Z,610.00
2023-04-26T09:35:15.006Z,613.00
2023-04-26T09:36:15.156Z,634.00
2023-04-26T09:37:15.108Z,593.00
2023-04-26T09:38:15.088Z,613.00
2023-04-26T09:39:15.109Z,630.00
2023-04-26T09:40:15.179Z,610.00
2023-04-26T09:41:15.149Z,578.00
2023-04-26T09:42:15.163Z,597.00
2023-04-26T09:43:15.177Z,610.00
2023-04-26T09:44:15.209Z,611.00
2023-04-26T09:45:15.245Z,610.00
2023-04-26T09:46:15.686Z,583.00
2023-04-26T09:47:15.478Z,604.00
2023-04-26T09:48:15.335Z,616.00
2023-04-26T09:49:15.360Z,604.00
2023-04-26T09:50:15.419Z,607.00
2023-04-26T09:51:15.712Z,639.00
2023-04-26T09:52:15.493Z,674.00
2023-04-26T09:53:15.509Z,734.00
2023-04-26T09:54:15.562Z,784.00
2023-04-26T09:55:25.347Z,800.00
2023-04-26T09:56:16.511Z,801.00
2023-04-26T09:57:15.522Z,806.00
2023-04-26T09:58:15.510Z,813.00
2023-04-26T09:59:15.492Z,834.00
2023-04-26T10:00:15.525Z,867.00
2023-04-26T10:01:15.572Z,838.00
2023-04-26T10:02:15.585Z,883.00
2023-04-26T10:03:15.736Z,892.00
2023-04-26T10:04:15.498Z,896.00
2023-04-26T10:05:15.450Z,914.00
2023-04-26T10:06:15.676Z,930.00
2023-04-26T10:07:15.452Z,909.00
2023-04-26T10:08:15.468Z,917.00
2023-04-26T10:09:15.423Z,908.00
2023-04-26T10:10:15.429Z,930.00
2023-04-26T10:11:15.696Z,936.00
2023-04-26T10:12:15.416Z,911.00
2023-04-26T10:13:15.416Z,900.00
2023-04-26T10:14:15.381Z,925.00
2023-04-26T10:15:15.401Z,945.00
2023-04-26T10:16:15.709Z,954.00
2023-04-26T10:17:15.381Z,945.00
2023-04-26T10:18:15.480Z,939.00
2023-04-26T10:19:15.494Z,964.00
2023-04-26T10:20:15.547Z,969.00
2023-04-26T10:21:15.720Z,977.00
2023-04-26T10:22:15.657Z,874.00
2023-04-26T10:23:17.300Z,936.00
2023-04-26T10:24:15.792Z,976.00
2023-04-26T10:25:15.805Z,967.00
2023-04-26T10:26:15.972Z,972.00
2023-04-26T10:27:15.907Z,954.00
2023-04-26T10:28:15.978Z,984.00
2023-04-26T10:29:16.011Z,924.00
2023-04-26T10:30:16.137Z,892.00
2023-04-26T10:31:16.213Z,884.00
2023-04-26T10:32:16.225Z,887.00
2023-04-26T10:33:16.370Z,953.00
2023-04-26T10:34:16.314Z,973.00
2023-04-26T10:35:16.431Z,977.00
2023-04-26T10:36:16.746Z,985.00
2023-04-26T10:37:16.506Z,983.00
2023-04-26T10:38:16.554Z,980.00
2023-04-26T10:39:16.614Z,959.00
2023-04-26T10:40:16.663Z,904.00
2023-04-26T10:41:17.265Z,920.00
2023-04-26T10:42:16.754Z,967.00
2023-04-26T10:43:16.836Z,957.00
2023-04-26T10:44:16.906Z,923.00
2023-04-26T10:45:17.471Z,886.00
2023-04-26T10:46:17.369Z,869.00
2023-04-26T10:47:17.066Z,852.00
2023-04-26T10:48:17.116Z,830.00
2023-04-26T10:49:17.166Z,812.00
2023-04-26T10:50:17.281Z,794.00
2023-04-26T10:51:17.276Z,773.00
2023-04-26T10:52:17.371Z,770.00
2023-04-26T10:53:17.366Z,768.00
2023-04-26T10:54:17.423Z,768.00
2023-04-26T10:55:17.394Z,731.00
2023-04-26T10:56:18.232Z,744.00
2023-04-26T10:57:17.425Z,759.00
2023-04-26T10:58:17.390Z,696.00
2023-04-26T10:59:36.402Z,698.00
2023-04-26T11:00:18.463Z,669.00
2023-04-26T11:01:17.493Z,677.00
2023-04-26T11:02:17.425Z,709.00
2023-04-26T11:03:18.442Z,658.00
2023-04-26T11:04:17.477Z,646.00
2023-04-26T11:05:17.374Z,643.00
2023-04-26T11:06:17.708Z,658.00
2023-04-26T11:07:17.382Z,649.00
2023-04-26T11:08:17.347Z,644.00
2023-04-26T11:09:17.331Z,628.00
2023-04-26T11:10:17.339Z,640.00
2023-04-26T11:11:17.729Z,645.00
2023-04-26T11:12:17.332Z,646.00
2023-04-26T11:13:17.284Z,624.00
2023-04-26T11:14:17.331Z,613.00
2023-04-26T11:15:17.311Z,625.00
2023-04-26T11:16:17.749Z,627.00
2023-04-26T11:17:17.290Z,627.00
2023-04-26T11:18:17.268Z,613.00
2023-04-26T11:19:17.255Z,623.00
2023-04-26T11:20:17.301Z,609.00
2023-04-26T11:21:17.254Z,614.00
2023-04-26T11:22:17.285Z,615.00
2023-04-26T11:23:17.217Z,619.00
2023-04-26T11:24:17.303Z,606.00
2023-04-26T11:25:17.265Z,598.00
2023-04-26T11:26:17.731Z,601.00
2023-04-26T11:27:17.360Z,604.00
2023-04-26T11:28:17.351Z,604.00
2023-04-26T11:29:17.435Z,622.00
2023-04-26T11:30:17.485Z,612.00
2023-04-26T11:31:17.797Z,590.00
2023-04-26T11:32:17.516Z,596.00
2023-04-26T11:33:17.578Z,587.00
2023-04-26T11:34:17.621Z,589.00
2023-04-26T11:35:17.670Z,600.00
2023-04-26T11:36:17.732Z,616.00
2023-04-26T11:37:17.779Z,604.00
2023-04-26T11:38:17.822Z,599.00
2023-04-26T11:39:17.823Z,608.00
2023-04-26T11:40:17.858Z,606.00
2023-04-26T11:41:18.235Z,610.00
2023-04-26T11:42:17.930Z,613.00
2023-04-26T11:43:17.996Z,613.00
2023-04-26T11:44:18.024Z,619.00
2023-04-26T11:45:18.107Z,606.00
2023-04-26T11:46:18.189Z,615.00
2023-04-26T11:47:18.173Z,618.00
2023-04-26T11:48:18.253Z,624.00
2023-04-26T11:49:18.299Z,610.00
2023-04-26T11:50:18.338Z,627.00
2023-04-26T11:51:18.384Z,621.00
2023-04-26T11:52:18.459Z,626.00
2023-04-26T11:53:18.460Z,624.00
2023-04-26T11:54:18.499Z,630.00
2023-04-26T11:55:18.635Z,632.00
2023-04-26T11:56:18.671Z,615.00
2023-04-26T11:57:18.619Z,631.00
2023-04-26T11:58:18.728Z,622.00
2023-04-26T11:59:18.716Z,626.00
2023-04-26T12:00:18.749Z,642.00
2023-04-26T12:01:18.832Z,612.00
2023-04-26T12:02:18.911Z,641.00
2023-04-26T12:03:19.107Z,636.00
2023-04-26T12:04:19.182Z,640.00
2023-04-26T12:05:19.072Z,627.00
2023-04-26T12:06:19.073Z,647.00
2023-04-26T12:07:19.074Z,643.00
2023-04-26T12:08:19.149Z,607.00
2023-04-26T12:09:19.165Z,634.00
2023-04-26T12:10:19.199Z,639.00
2023-04-26T12:11:19.278Z,641.00
2023-04-26T12:12:19.276Z,631.00
2023-04-26T12:13:19.356Z,643.00
2023-04-26T12:14:19.396Z,628.00
2023-04-26T12:15:19.450Z,625.00
2023-04-26T12:16:26.238Z,642.00
2023-04-26T12:17:20.568Z,641.00
2023-04-26T12:18:19.483Z,643.00
2023-04-26T12:19:19.420Z,632.00
2023-04-26T12:20:20.209Z,636.00
2023-04-26T12:21:19.413Z,638.00
2023-04-26T12:22:19.420Z,625.00
2023-04-26T12:23:19.400Z,635.00
2023-04-26T12:24:19.408Z,649.00
2023-04-26T12:25:19.405Z,635.00
2023-04-26T12:26:19.396Z,637.00
2023-04-26T12:27:19.385Z,636.00
2023-04-26T12:28:19.390Z,610.00
2023-04-26T12:29:19.404Z,665.00